Skagsudde, Sweden

5:51 AM CEST on April 01, 2015 (GMT +0200)
Ornskoldsvik, Sweden | | Change Station
CLOSE
Current Station
Personal Weather Station
Location: Ornskoldsvik, Vasternorrland
Elevation: 250 ft
Nearby Weather Stations

Elev 250 ft 63.28 °N, 18.76 °E | Updated 10 seconds ago

Clear
Clear
27.9 °F
Feels Like 20 °F
N
8.3
Wind Variable Wind from NW
Gusts 8.3 mph

Today
High -- | Low -- °F
--% Chance of Precip.
Yesterday
High -- | Low -- °F
Precip. -- in
6:05 AM 7:32 PM
Waxing Gibbous, 90% visible
Pressure 29.09 in
Visibility 6.2 miles
Clouds
Windchill 20 °F
Dew Point 24 °F
Humidity 85%
Rainfall 0.00 in
Snow Depth Not available.
UV Not available.
Pollen Not available.
Air Quality Not available.
Flu Activity Not available.
METAR ESNO 010320Z AUTO 27003KT 9999 NCD M05/M06 Q0985

More Conditions Fewer Conditions

Pressure 29.09 in
Visibility 6.2 miles
Clouds
Windchill 20 °F
Dew Point 24 °F
Humidity 85%
Rainfall 0.00 in
Snow Depth Not available.
UV Not available.
Pollen Not available.
Air Quality Not available.
Flu Activity Not available.
METAR ESNO 010320Z AUTO 27003KT 9999 NCD M05/M06 Q0985

More Conditions Fewer Conditions

10-Day Weather Forecast

Almanac

Astronomy

Apr. 01, 2015 Rise Set
Actual Time
Civil Twilight
Nautical Twilight
Astronomical Twilight
Moon
Length of Visible Light
Length of Day
Tomorrow will be .
, % of the Moon is Illuminated

Today's Extremes

Country Highs Country Lows

Community

WunderPhotos

Upload Photos

1,809,900 photos uploaded!

WunderBlogs® & News

Nearby

Air Quality

  Air Quality AQ Index Pollutant
Not available.

Snow Depth

Station Depth Elevation

Earthquake Activity

City Distance Mag. Time & Date
Minimum magnitude displayed is 2.5.

Coastal Water Temperatures

Place Temperature

Stations

Nearby Weather Stations

Station Location Temp. Windchill Dew Point Humidity Wind Precip. Elev Updated Type